sensor_id;sensor_type;location;lat;lon;timestamp;pressure;altitude;pressure_sealevel;temperature;humidity
73063;BME280;61230;46.328;19.972;2023-04-22T00:00:32;100361.44;;;9.79;75.06
73063;BME280;61230;46.328;19.972;2023-04-22T00:03:02;100374.12;;;9.74;75.21
73063;BME280;61230;46.328;19.972;2023-04-22T00:05:30;100373.59;;;9.70;77.20
73063;BME280;61230;46.328;19.972;2023-04-22T00:07:58;100373.16;;;9.65;76.77
73063;BME280;61230;46.328;19.972;2023-04-22T00:10:26;100373.53;;;9.51;76.26
73063;BME280;61230;46.328;19.972;2023-04-22T00:12:54;100324.56;;;9.21;74.50
73063;BME280;61230;46.328;19.972;2023-04-22T00:15:21;100369.53;;;9.47;74.34
73063;BME280;61230;46.328;19.972;2023-04-22T00:17:49;100369.78;;;9.44;79.76
73063;BME280;61230;46.328;19.972;2023-04-22T00:20:18;100377.38;;;9.38;77.50
73063;BME280;61230;46.328;19.972;2023-04-22T00:22:47;100361.56;;;9.28;75.60
73063;BME280;61230;46.328;19.972;2023-04-22T00:25:15;100321.87;;;9.02;76.02
73063;BME280;61230;46.328;19.972;2023-04-22T00:27:44;100367.41;;;9.32;77.23
73063;BME280;61230;46.328;19.972;2023-04-22T00:30:12;100364.34;;;9.27;79.15
73063;BME280;61230;46.328;19.972;2023-04-22T00:32:40;100371.09;;;9.19;79.47
73063;BME280;61230;46.328;19.972;2023-04-22T00:35:08;100372.34;;;9.15;79.99
73063;BME280;61230;46.328;19.972;2023-04-22T00:37:35;100371.91;;;9.10;80.23
73063;BME280;61230;46.328;19.972;2023-04-22T00:40:04;100369.66;;;9.06;79.29
73063;BME280;61230;46.328;19.972;2023-04-22T00:42:33;100371.28;;;8.97;78.33
73063;BME280;61230;46.328;19.972;2023-04-22T00:45:01;100354.34;;;8.81;79.74
73063;BME280;61230;46.328;19.972;2023-04-22T00:47:29;100369.16;;;8.82;78.57
73063;BME280;61230;46.328;19.972;2023-04-22T00:49:59;100361.78;;;8.76;78.54
73063;BME280;61230;46.328;19.972;2023-04-22T00:52:26;100368.12;;;8.73;79.27
73063;BME280;61230;46.328;19.972;2023-04-22T00:54:54;100374.59;;;8.69;81.48
73063;BME280;61230;46.328;19.972;2023-04-22T00:57:22;100370.31;;;8.68;81.87
73063;BME280;61230;46.328;19.972;2023-04-22T00:59:50;100321.28;;;8.38;80.16
73063;BME280;61230;46.328;19.972;2023-04-22T01:02:18;100377.72;;;8.63;79.32
73063;BME280;61230;46.328;19.972;2023-04-22T01:04:46;100381.19;;;8.63;78.52
73063;BME280;61230;46.328;19.972;2023-04-22T01:07:14;100380.75;;;8.58;81.45
73063;BME280;61230;46.328;19.972;2023-04-22T01:09:42;100379.06;;;8.57;79.24
73063;BME280;61230;46.328;19.972;2023-04-22T01:12:10;100380.16;;;8.55;78.68
73063;BME280;61230;46.328;19.972;2023-04-22T01:14:38;100373.66;;;8.49;79.96
73063;BME280;61230;46.328;19.972;2023-04-22T01:17:06;100328.56;;;8.14;81.73
73063;BME280;61230;46.328;19.972;2023-04-22T01:19:34;100380.63;;;8.39;81.18
73063;BME280;61230;46.328;19.972;2023-04-22T01:22:02;100374.81;;;8.36;81.35
73063;BME280;61230;46.328;19.972;2023-04-22T01:24:32;100377.69;;;8.33;84.97
73063;BME280;61230;46.328;19.972;2023-04-22T01:26:59;100382.38;;;8.18;82.54
73063;BME280;61230;46.328;19.972;2023-04-22T01:29:28;100375.53;;;8.27;81.49
73063;BME280;61230;46.328;19.972;2023-04-22T01:31:56;100381.75;;;8.26;81.76
73063;BME280;61230;46.328;19.972;2023-04-22T01:34:24;100380.34;;;8.22;80.53
73063;BME280;61230;46.328;19.972;2023-04-22T01:36:51;100333.62;;;7.74;81.02
73063;BME280;61230;46.328;19.972;2023-04-22T01:39:19;100392.53;;;8.12;80.74
73063;BME280;61230;46.328;19.972;2023-04-22T01:41:47;100384.78;;;8.10;80.75
73063;BME280;61230;46.328;19.972;2023-04-22T01:44:15;100391.38;;;8.04;80.83
73063;BME280;61230;46.328;19.972;2023-04-22T01:46:42;100341.09;;;7.79;80.87
73063;BME280;61230;46.328;19.972;2023-04-22T01:49:11;100395.53;;;8.07;80.77
73063;BME280;61230;46.328;19.972;2023-04-22T01:51:39;100386.97;;;8.05;80.98
73063;BME280;61230;46.328;19.972;2023-04-22T01:54:07;100388.75;;;8.04;82.44
73063;BME280;61230;46.328;19.972;2023-04-22T01:56:35;100383.16;;;7.98;83.12
73063;BME280;61230;46.328;19.972;2023-04-22T01:59:06;100338.97;;;7.73;82.34
73063;BME280;61230;46.328;19.972;2023-04-22T02:01:34;100334.47;;;7.64;81.06
73063;BME280;61230;46.328;19.972;2023-04-22T02:04:05;100387.47;;;7.99;81.38
73063;BME280;61230;46.328;19.972;2023-04-22T02:06:33;100384.12;;;7.97;81.84
73063;BME280;61230;46.328;19.972;2023-04-22T02:09:02;100385.78;;;7.98;83.29
73063;BME280;61230;46.328;19.972;2023-04-22T02:11:31;100373.78;;;7.95;82.34
73063;BME280;61230;46.328;19.972;2023-04-22T02:13:58;100365.84;;;7.86;81.67
73063;BME280;61230;46.328;19.972;2023-04-22T02:16:26;100377.47;;;7.93;82.22
73063;BME280;61230;46.328;19.972;2023-04-22T02:18:54;100387.69;;;7.96;80.73
73063;BME280;61230;46.328;19.972;2023-04-22T02:21:22;100387.25;;;7.91;81.96
73063;BME280;61230;46.328;19.972;2023-04-22T02:23:49;100382.97;;;7.90;81.20
73063;BME280;61230;46.328;19.972;2023-04-22T02:26:17;100386.56;;;7.89;81.42
73063;BME280;61230;46.328;19.972;2023-04-22T02:28:44;100383.09;;;7.88;81.20
73063;BME280;61230;46.328;19.972;2023-04-22T02:31:12;100335.00;;;7.58;82.37
73063;BME280;61230;46.328;19.972;2023-04-22T02:33:40;100382.25;;;7.88;82.44
73063;BME280;61230;46.328;19.972;2023-04-22T02:36:08;100384.19;;;7.86;80.24
73063;BME280;61230;46.328;19.972;2023-04-22T02:38:37;100391.09;;;7.76;79.80
73063;BME280;61230;46.328;19.972;2023-04-22T02:41:06;100383.03;;;7.68;80.23
73063;BME280;61230;46.328;19.972;2023-04-22T02:43:36;100380.66;;;7.65;80.05
73063;BME280;61230;46.328;19.972;2023-04-22T02:46:04;100376.59;;;7.61;80.22
73063;BME280;61230;46.328;19.972;2023-04-22T02:48:32;100380.91;;;7.62;79.90
73063;BME280;61230;46.328;19.972;2023-04-22T02:50:59;100377.22;;;7.53;79.94
73063;BME280;61230;46.328;19.972;2023-04-22T02:53:27;100375.81;;;7.49;80.11
73063;BME280;61230;46.328;19.972;2023-04-22T02:55:55;100385.09;;;7.53;80.25
73063;BME280;61230;46.328;19.972;2023-04-22T02:58:23;100380.19;;;7.60;80.27
73063;BME280;61230;46.328;19.972;2023-04-22T03:00:53;100377.13;;;7.55;82.77
73063;BME280;61230;46.328;19.972;2023-04-22T03:03:23;100379.75;;;7.55;82.13
73063;BME280;61230;46.328;19.972;2023-04-22T03:05:51;100387.84;;;7.51;82.18
73063;BME280;61230;46.328;19.972;2023-04-22T03:08:18;100376.41;;;7.52;83.95
73063;BME280;61230;46.328;19.972;2023-04-22T03:10:46;100360.72;;;7.41;84.17
73063;BME280;61230;46.328;19.972;2023-04-22T03:13:14;100372.41;;;7.37;83.53
73063;BME280;61230;46.328;19.972;2023-04-22T03:15:42;100381.16;;;7.47;83.39
73063;BME280;61230;46.328;19.972;2023-04-22T03:18:11;100378.69;;;7.46;81.89
73063;BME280;61230;46.328;19.972;2023-04-22T03:20:38;100305.13;;;6.95;81.92
73063;BME280;61230;46.328;19.972;2023-04-22T03:23:06;100389.75;;;7.38;83.36
73063;BME280;61230;46.328;19.972;2023-04-22T03:25:35;100387.59;;;7.32;82.08
73063;BME280;61230;46.328;19.972;2023-04-22T03:28:04;100384.28;;;7.30;82.23
73063;BME280;61230;46.328;19.972;2023-04-22T03:30:32;100391.28;;;7.30;84.87
73063;BME280;61230;46.328;19.972;2023-04-22T03:33:00;100388.12;;;7.26;82.35
73063;BME280;61230;46.328;19.972;2023-04-22T03:35:28;100337.69;;;6.91;84.36
73063;BME280;61230;46.328;19.972;2023-04-22T03:37:56;100394.06;;;7.17;83.10
73063;BME280;61230;46.328;19.972;2023-04-22T03:40:24;100387.38;;;7.13;82.48
73063;BME280;61230;46.328;19.972;2023-04-22T03:42:52;100398.09;;;7.10;84.43
73063;BME280;61230;46.328;19.972;2023-04-22T03:45:20;100379.69;;;7.01;85.66
73063;BME280;61230;46.328;19.972;2023-04-22T03:47:49;100383.47;;;6.97;85.68
73063;BME280;61230;46.328;19.972;2023-04-22T03:50:17;100407.38;;;7.03;86.62
73063;BME280;61230;46.328;19.972;2023-04-22T03:52:45;100359.31;;;6.60;84.01
73063;BME280;61230;46.328;19.972;2023-04-22T03:55:16;100405.69;;;6.91;82.27
73063;BME280;61230;46.328;19.972;2023-04-22T03:57:43;100405.94;;;6.99;84.46
73063;BME280;61230;46.328;19.972;2023-04-22T04:00:11;100402.63;;;6.97;84.29
73063;BME280;61230;46.328;19.972;2023-04-22T04:02:41;100354.56;;;6.65;84.26
73063;BME280;61230;46.328;19.972;2023-04-22T04:05:10;100406.06;;;6.98;84.99
73063;BME280;61230;46.328;19.972;2023-04-22T04:07:38;100420.00;;;6.98;89.26
73063;BME280;61230;46.328;19.972;2023-04-22T04:10:06;100409.38;;;6.88;89.79
73063;BME280;61230;46.328;19.972;2023-04-22T04:12:34;100424.50;;;7.07;85.71
73063;BME280;61230;46.328;19.972;2023-04-22T04:15:02;100434.72;;;7.10;82.09
73063;BME280;61230;46.328;19.972;2023-04-22T04:17:30;100426.75;;;7.12;81.08
73063;BME280;61230;46.328;19.972;2023-04-22T04:19:59;100431.03;;;7.24;80.30
73063;BME280;61230;46.328;19.972;2023-04-22T04:22:27;100434.94;;;7.29;81.94
73063;BME280;61230;46.328;19.972;2023-04-22T04:24:55;100431.41;;;7.30;78.56
73063;BME280;61230;46.328;19.972;2023-04-22T04:27:24;100410.00;;;7.25;81.92
73063;BME280;61230;46.328;19.972;2023-04-22T04:29:52;100441.38;;;7.47;79.39
73063;BME280;61230;46.328;19.972;2023-04-22T04:32:22;100430.66;;;7.50;77.47
73063;BME280;61230;46.328;19.972;2023-04-22T04:34:51;100428.03;;;7.62;75.78
73063;BME280;61230;46.328;19.972;2023-04-22T04:37:21;100435.75;;;7.74;75.27
73063;BME280;61230;46.328;19.972;2023-04-22T04:39:50;100435.50;;;7.77;75.27
73063;BME280;61230;46.328;19.972;2023-04-22T04:42:18;100455.62;;;7.77;75.78
73063;BME280;61230;46.328;19.972;2023-04-22T04:44:47;100435.59;;;7.87;74.70
73063;BME280;61230;46.328;19.972;2023-04-22T04:47:19;100444.00;;;8.01;74.02
73063;BME280;61230;46.328;19.972;2023-04-22T04:49:47;100450.09;;;8.02;74.25
73063;BME280;61230;46.328;19.972;2023-04-22T04:52:15;100447.19;;;8.16;74.21
73063;BME280;61230;46.328;19.972;2023-04-22T04:54:43;100404.84;;;8.00;73.57
73063;BME280;61230;46.328;19.972;2023-04-22T04:57:10;100418.69;;;8.23;72.93
73063;BME280;61230;46.328;19.972;2023-04-22T04:59:39;100441.72;;;8.51;73.34
73063;BME280;61230;46.328;19.972;2023-04-22T05:02:07;100394.69;;;8.38;72.07
73063;BME280;61230;46.328;19.972;2023-04-22T05:04:35;100448.81;;;8.81;71.08
73063;BME280;61230;46.328;19.972;2023-04-22T05:07:03;100448.62;;;8.93;71.62
73063;BME280;61230;46.328;19.972;2023-04-22T05:09:32;100445.06;;;9.04;71.40
73063;BME280;61230;46.328;19.972;2023-04-22T05:12:04;100431.38;;;9.00;72.63
73063;BME280;61230;46.328;19.972;2023-04-22T05:14:32;100445.34;;;9.31;71.65
73063;BME280;61230;46.328;19.972;2023-04-22T05:16:59;100449.00;;;9.49;71.75
73063;BME280;61230;46.328;19.972;2023-04-22T05:19:27;100453.47;;;9.58;72.66
73063;BME280;61230;46.328;19.972;2023-04-22T05:21:55;100406.94;;;9.40;71.20
73063;BME280;61230;46.328;19.972;2023-04-22T05:24:23;100400.06;;;9.48;69.75
73063;BME280;61230;46.328;19.972;2023-04-22T05:26:51;100451.19;;;9.94;69.73
73063;BME280;61230;46.328;19.972;2023-04-22T05:29:18;100454.00;;;10.02;68.75
73063;BME280;61230;46.328;19.972;2023-04-22T05:31:46;100448.72;;;10.11;67.26
73063;BME280;61230;46.328;19.972;2023-04-22T05:34:14;100459.03;;;10.24;67.67
73063;BME280;61230;46.328;19.972;2023-04-22T05:36:42;100450.16;;;10.34;66.15
73063;BME280;61230;46.328;19.972;2023-04-22T05:39:09;100457.50;;;10.41;65.96
73063;BME280;61230;46.328;19.972;2023-04-22T05:41:37;100459.72;;;10.55;66.09
73063;BME280;61230;46.328;19.972;2023-04-22T05:44:07;100453.75;;;10.62;65.20
73063;BME280;61230;46.328;19.972;2023-04-22T05:46:34;100466.63;;;10.65;64.80
73063;BME280;61230;46.328;19.972;2023-04-22T05:49:02;100409.87;;;10.44;65.13
73063;BME280;61230;46.328;19.972;2023-04-22T05:51:31;100453.31;;;10.86;64.93
73063;BME280;61230;46.328;19.972;2023-04-22T05:53:59;100473.09;;;10.90;64.82
73063;BME280;61230;46.328;19.972;2023-04-22T05:56:27;100469.50;;;11.01;63.40
73063;BME280;61230;46.328;19.972;2023-04-22T05:58:55;100474.16;;;11.16;63.36
73063;BME280;61230;46.328;19.972;2023-04-22T06:01:23;100433.31;;;11.03;63.64
73063;BME280;61230;46.328;19.972;2023-04-22T06:03:51;100427.59;;;11.17;63.41
73063;BME280;61230;46.328;19.972;2023-04-22T06:06:19;100472.62;;;11.60;62.84
73063;BME280;61230;46.328;19.972;2023-04-22T06:08:47;100468.69;;;11.64;61.43
73063;BME280;61230;46.328;19.972;2023-04-22T06:11:15;100424.53;;;11.48;61.26
73063;BME280;61230;46.328;19.972;2023-04-22T06:13:42;100487.44;;;11.71;60.91
73063;BME280;61230;46.328;19.972;2023-04-22T06:16:10;100479.47;;;11.80;61.03
73063;BME280;61230;46.328;19.972;2023-04-22T06:18:37;100475.22;;;11.97;60.67
73063;BME280;61230;46.328;19.972;2023-04-22T06:21:05;100480.72;;;12.03;60.78
73063;BME280;61230;46.328;19.972;2023-04-22T06:23:35;100481.88;;;12.19;60.74
73063;BME280;61230;46.328;19.972;2023-04-22T06:26:03;100485.09;;;12.13;59.69
73063;BME280;61230;46.328;19.972;2023-04-22T06:28:31;100484.28;;;12.30;59.25
73063;BME280;61230;46.328;19.972;2023-04-22T06:31:01;100495.09;;;12.54;59.33
73063;BME280;61230;46.328;19.972;2023-04-22T06:33:29;100494.37;;;12.52;58.79
73063;BME280;61230;46.328;19.972;2023-04-22T06:35:56;100481.41;;;12.76;59.65
73063;BME280;61230;46.328;19.972;2023-04-22T06:38:25;100473.63;;;12.75;58.65
73063;BME280;61230;46.328;19.972;2023-04-22T06:40:54;100489.56;;;12.83;57.93
73063;BME280;61230;46.328;19.972;2023-04-22T06:43:23;100484.22;;;13.00;57.70
73063;BME280;61230;46.328;19.972;2023-04-22T06:45:56;100490.94;;;13.12;57.92
73063;BME280;61230;46.328;19.972;2023-04-22T06:48:26;100493.31;;;13.23;57.51
73063;BME280;61230;46.328;19.972;2023-04-22T06:50:55;100490.06;;;13.30;57.48
73063;BME280;61230;46.328;19.972;2023-04-22T06:53:24;100488.50;;;13.45;56.69
73063;BME280;61230;46.328;19.972;2023-04-22T06:55:52;100495.56;;;13.70;56.72
73063;BME280;61230;46.328;19.972;2023-04-22T06:58:21;100492.00;;;13.87;56.51
73063;BME280;61230;46.328;19.972;2023-04-22T07:00:48;100496.41;;;13.70;56.45
73063;BME280;61230;46.328;19.972;2023-04-22T07:03:16;100495.63;;;13.86;55.73
73063;BME280;61230;46.328;19.972;2023-04-22T07:05:47;100488.03;;;13.91;56.43
73063;BME280;61230;46.328;19.972;2023-04-22T07:08:15;100453.59;;;13.75;56.02
73063;BME280;61230;46.328;19.972;2023-04-22T07:10:43;100493.88;;;14.11;55.91
73063;BME280;61230;46.328;19.972;2023-04-22T07:13:13;100467.94;;;14.14;56.12
73063;BME280;61230;46.328;19.972;2023-04-22T07:15:41;100489.78;;;14.24;54.28
73063;BME280;61230;46.328;19.972;2023-04-22T07:18:08;100491.50;;;14.42;54.63
73063;BME280;61230;46.328;19.972;2023-04-22T07:20:36;100495.00;;;14.50;55.30
73063;BME280;61230;46.328;19.972;2023-04-22T07:23:04;100449.97;;;14.42;55.89
73063;BME280;61230;46.328;19.972;2023-04-22T07:25:32;100496.81;;;14.74;55.53
73063;BME280;61230;46.328;19.972;2023-04-22T07:27:59;100499.31;;;14.75;54.68
73063;BME280;61230;46.328;19.972;2023-04-22T07:30:27;100503.75;;;14.99;54.96
73063;BME280;61230;46.328;19.972;2023-04-22T07:32:54;100506.25;;;14.92;54.06
73063;BME280;61230;46.328;19.972;2023-04-22T07:35:22;100508.72;;;15.02;52.79
73063;BME280;61230;46.328;19.972;2023-04-22T07:37:50;100505.41;;;15.16;52.24
73063;BME280;61230;46.328;19.972;2023-04-22T07:40:17;100505.84;;;15.36;52.44
73063;BME280;61230;46.328;19.972;2023-04-22T07:42:45;100511.31;;;15.50;51.65
73063;BME280;61230;46.328;19.972;2023-04-22T07:45:13;100507.53;;;15.37;52.24
73063;BME280;61230;46.328;19.972;2023-04-22T07:47:40;100511.13;;;15.44;51.73
73063;BME280;61230;46.328;19.972;2023-04-22T07:50:09;100518.84;;;15.86;51.61
73063;BME280;61230;46.328;19.972;2023-04-22T07:52:36;100501.66;;;16.04;51.37
73063;BME280;61230;46.328;19.972;2023-04-22T07:55:04;100462.44;;;15.92;51.17
73063;BME280;61230;46.328;19.972;2023-04-22T07:57:32;100507.44;;;16.39;50.84
73063;BME280;61230;46.328;19.972;2023-04-22T08:00:06;100501.22;;;16.54;49.46
73063;BME280;61230;46.328;19.972;2023-04-22T08:02:38;100506.06;;;16.74;47.71
73063;BME280;61230;46.328;19.972;2023-04-22T08:05:06;100502.72;;;16.94;47.29
73063;BME280;61230;46.328;19.972;2023-04-22T08:07:34;100510.91;;;16.70;45.88
73063;BME280;61230;46.328;19.972;2023-04-22T08:10:05;100507.44;;;17.07;45.47
73063;BME280;61230;46.328;19.972;2023-04-22T08:12:33;100503.41;;;17.11;45.42
73063;BME280;61230;46.328;19.972;2023-04-22T08:15:00;100505.28;;;17.25;46.34
73063;BME280;61230;46.328;19.972;2023-04-22T08:17:28;100502.66;;;17.17;46.22
73063;BME280;61230;46.328;19.972;2023-04-22T08:19:56;100492.66;;;17.04;46.40
73063;BME280;61230;46.328;19.972;2023-04-22T08:22:24;100497.34;;;17.17;46.67
73063;BME280;61230;46.328;19.972;2023-04-22T08:24:51;100505.84;;;17.50;46.77
73063;BME280;61230;46.328;19.972;2023-04-22T08:27:22;100496.66;;;17.52;46.03
73063;BME280;61230;46.328;19.972;2023-04-22T08:29:50;100511.66;;;17.68;45.73
73063;BME280;61230;46.328;19.972;2023-04-22T08:32:17;100502.16;;;17.95;44.93
73063;BME280;61230;46.328;19.972;2023-04-22T08:34:46;100500.97;;;18.33;45.48
73063;BME280;61230;46.328;19.972;2023-04-22T08:37:17;100506.16;;;18.20;45.04
73063;BME280;61230;46.328;19.972;2023-04-22T08:39:45;100503.59;;;18.12;45.00
73063;BME280;61230;46.328;19.972;2023-04-22T08:42:14;100498.91;;;18.14;43.08
73063;BME280;61230;46.328;19.972;2023-04-22T08:44:42;100493.63;;;18.35;41.13
73063;BME280;61230;46.328;19.972;2023-04-22T08:47:10;100502.31;;;18.44;41.38
73063;BME280;61230;46.328;19.972;2023-04-22T08:49:41;100499.47;;;18.87;41.42
73063;BME280;61230;46.328;19.972;2023-04-22T08:52:08;100499.88;;;19.12;40.76
73063;BME280;61230;46.328;19.972;2023-04-22T08:54:37;100517.34;;;19.15;41.08
73063;BME280;61230;46.328;19.972;2023-04-22T08:57:06;100507.53;;;18.94;40.01
73063;BME280;61230;46.328;19.972;2023-04-22T08:59:34;100504.31;;;19.33;40.15
73063;BME280;61230;46.328;19.972;2023-04-22T09:02:04;100511.28;;;19.00;40.57
73063;BME280;61230;46.328;19.972;2023-04-22T09:04:33;100516.38;;;19.22;40.58
73063;BME280;61230;46.328;19.972;2023-04-22T09:07:01;100507.53;;;19.22;38.30
73063;BME280;61230;46.328;19.972;2023-04-22T09:09:30;100510.31;;;19.63;38.37
73063;BME280;61230;46.328;19.972;2023-04-22T09:11:58;100514.31;;;19.80;38.18
73063;BME280;61230;46.328;19.972;2023-04-22T09:14:26;100510.75;;;19.66;37.36
73063;BME280;61230;46.328;19.972;2023-04-22T09:16:56;100501.37;;;19.83;37.97
73063;BME280;61230;46.328;19.972;2023-04-22T09:19:24;100515.25;;;19.66;38.73
73063;BME280;61230;46.328;19.972;2023-04-22T09:21:52;100511.22;;;19.83;38.94
73063;BME280;61230;46.328;19.972;2023-04-22T09:24:21;100511.66;;;19.86;37.77
73063;BME280;61230;46.328;19.972;2023-04-22T09:26:49;100498.72;;;20.44;36.95
73063;BME280;61230;46.328;19.972;2023-04-22T09:29:16;100507.53;;;20.38;36.88
73063;BME280;61230;46.328;19.972;2023-04-22T09:31:48;100508.13;;;20.27;35.99
73063;BME280;61230;46.328;19.972;2023-04-22T09:34:17;100498.00;;;19.68;35.43
73063;BME280;61230;46.328;19.972;2023-04-22T09:36:44;100501.25;;;20.04;35.95
73063;BME280;61230;46.328;19.972;2023-04-22T09:39:13;100497.56;;;20.05;34.92
73063;BME280;61230;46.328;19.972;2023-04-22T09:41:41;100488.50;;;20.06;35.17
73063;BME280;61230;46.328;19.972;2023-04-22T09:44:13;100492.56;;;20.37;34.44
73063;BME280;61230;46.328;19.972;2023-04-22T09:46:42;100493.81;;;20.60;33.19
73063;BME280;61230;46.328;19.972;2023-04-22T09:49:10;100491.59;;;20.90;31.97
73063;BME280;61230;46.328;19.972;2023-04-22T09:51:41;100494.72;;;20.14;32.82
73063;BME280;61230;46.328;19.972;2023-04-22T09:54:09;100489.72;;;20.64;29.04
73063;BME280;61230;46.328;19.972;2023-04-22T09:56:51;100472.84;;;20.90;27.61
73063;BME280;61230;46.328;19.972;2023-04-22T09:59:24;100473.44;;;21.32;27.88
73063;BME280;61230;46.328;19.972;2023-04-22T10:01:57;100467.06;;;21.39;29.24
73063;BME280;61230;46.328;19.972;2023-04-22T10:04:26;100475.34;;;21.25;28.93
73063;BME280;61230;46.328;19.972;2023-04-22T10:06:54;100467.94;;;21.13;28.33
73063;BME280;61230;46.328;19.972;2023-04-22T10:09:24;100479.16;;;21.55;28.18
73063;BME280;61230;46.328;19.972;2023-04-22T10:11:54;100458.06;;;21.85;27.53
73063;BME280;61230;46.328;19.972;2023-04-22T10:14:24;100465.81;;;21.48;26.16
73063;BME280;61230;46.328;19.972;2023-04-22T10:16:57;100422.69;;;21.63;26.13
73063;BME280;61230;46.328;19.972;2023-04-22T10:19:26;100466.88;;;21.98;27.07
73063;BME280;61230;46.328;19.972;2023-04-22T10:21:59;100428.78;;;22.27;26.17
73063;BME280;61230;46.328;19.972;2023-04-22T10:24:27;100463.00;;;22.88;25.92
73063;BME280;61230;46.328;19.972;2023-04-22T10:27:02;100466.72;;;23.55;25.76
73063;BME280;61230;46.328;19.972;2023-04-22T10:29:39;100461.84;;;23.27;25.83
73063;BME280;61230;46.328;19.972;2023-04-22T10:34:37;100460.37;;;22.19;26.95
73063;BME280;61230;46.328;19.972;2023-04-22T10:37:07;100460.56;;;21.73;27.78
73063;BME280;61230;46.328;19.972;2023-04-22T10:39:36;100458.25;;;21.12;27.96
73063;BME280;61230;46.328;19.972;2023-04-22T10:42:10;100459.47;;;21.03;29.55
73063;BME280;61230;46.328;19.972;2023-04-22T10:44:51;100461.53;;;20.82;29.61
73063;BME280;61230;46.328;19.972;2023-04-22T10:50:33;100459.84;;;22.04;26.70
73063;BME280;61230;46.328;19.972;2023-04-22T10:53:33;100455.59;;;22.59;26.73
73063;BME280;61230;46.328;19.972;2023-04-22T10:56:15;100453.28;;;21.87;27.02
73063;BME280;61230;46.328;19.972;2023-04-22T10:58:44;100456.00;;;21.93;27.23
73063;BME280;61230;46.328;19.972;2023-04-22T11:01:15;100461.34;;;21.16;27.80
73063;BME280;61230;46.328;19.972;2023-04-22T11:03:42;100455.56;;;20.86;28.49
73063;BME280;61230;46.328;19.972;2023-04-22T11:06:18;100457.19;;;20.61;28.13
73063;BME280;61230;46.328;19.972;2023-04-22T11:08:49;100457.59;;;20.32;28.95
73063;BME280;61230;46.328;19.972;2023-04-22T11:11:17;100450.44;;;20.78;29.38
73063;BME280;61230;46.328;19.972;2023-04-22T11:13:47;100440.75;;;21.16;28.19
73063;BME280;61230;46.328;19.972;2023-04-22T11:16:20;100448.16;;;21.21;28.46
73063;BME280;61230;46.328;19.972;2023-04-22T11:18:49;100444.22;;;20.97;28.99
73063;BME280;61230;46.328;19.972;2023-04-22T11:21:17;100449.38;;;20.33;29.35
73063;BME280;61230;46.328;19.972;2023-04-22T11:23:51;100413.63;;;20.80;29.05
73063;BME280;61230;46.328;19.972;2023-04-22T11:26:35;100446.31;;;21.15;28.26
73063;BME280;61230;46.328;19.972;2023-04-22T11:29:03;100438.69;;;21.18;27.70
73063;BME280;61230;46.328;19.972;2023-04-22T11:31:31;100444.03;;;22.27;26.87
73063;BME280;61230;46.328;19.972;2023-04-22T11:33:59;100445.22;;;22.38;25.99
73063;BME280;61230;46.328;19.972;2023-04-22T11:36:26;100444.59;;;22.04;25.54
73063;BME280;61230;46.328;19.972;2023-04-22T11:38:55;100439.09;;;22.55;25.36
73063;BME280;61230;46.328;19.972;2023-04-22T11:41:23;100451.53;;;23.78;25.25
73063;BME280;61230;46.328;19.972;2023-04-22T11:43:51;100435.75;;;24.00;24.57
73063;BME280;61230;46.328;19.972;2023-04-22T11:46:29;100453.41;;;23.41;24.26
73063;BME280;61230;46.328;19.972;2023-04-22T11:49:14;100444.50;;;23.23;25.68
73063;BME280;61230;46.328;19.972;2023-04-22T11:51:55;100447.91;;;22.69;26.15
73063;BME280;61230;46.328;19.972;2023-04-22T11:54:31;100438.53;;;21.71;25.76
73063;BME280;61230;46.328;19.972;2023-04-22T11:57:06;100440.97;;;22.55;25.74
73063;BME280;61230;46.328;19.972;2023-04-22T11:59:34;100446.28;;;21.86;25.58
73063;BME280;61230;46.328;19.972;2023-04-22T12:02:06;100447.00;;;21.68;26.73
73063;BME280;61230;46.328;19.972;2023-04-22T12:04:38;100445.59;;;21.52;24.62
73063;BME280;61230;46.328;19.972;2023-04-22T12:07:06;100437.91;;;23.01;23.90
73063;BME280;61230;46.328;19.972;2023-04-22T12:09:33;100425.56;;;22.75;24.98
73063;BME280;61230;46.328;19.972;2023-04-22T12:12:02;100429.94;;;24.33;23.86
73063;BME280;61230;46.328;19.972;2023-04-22T12:14:32;100433.03;;;23.88;23.97
73063;BME280;61230;46.328;19.972;2023-04-22T12:17:07;100437.37;;;24.01;23.41
73063;BME280;61230;46.328;19.972;2023-04-22T12:19:36;100436.47;;;23.59;23.51
73063;BME280;61230;46.328;19.972;2023-04-22T12:22:04;100429.38;;;21.98;25.76
73063;BME280;61230;46.328;19.972;2023-04-22T12:24:31;100392.22;;;20.67;27.08
73063;BME280;61230;46.328;19.972;2023-04-22T12:26:59;100430.47;;;20.61;28.65
73063;BME280;61230;46.328;19.972;2023-04-22T12:29:31;100421.41;;;20.42;28.30
73063;BME280;61230;46.328;19.972;2023-04-22T12:31:59;100429.16;;;20.24;28.11
73063;BME280;61230;46.328;19.972;2023-04-22T12:34:30;100425.84;;;20.16;28.23
73063;BME280;61230;46.328;19.972;2023-04-22T12:36:57;100420.78;;;20.34;28.48
73063;BME280;61230;46.328;19.972;2023-04-22T12:39:25;100424.44;;;20.20;29.30
73063;BME280;61230;46.328;19.972;2023-04-22T12:41:53;100412.38;;;20.50;29.02
73063;BME280;61230;46.328;19.972;2023-04-22T12:44:20;100416.91;;;20.56;28.60
73063;BME280;61230;46.328;19.972;2023-04-22T12:46:51;100378.84;;;20.34;28.38
73063;BME280;61230;46.328;19.972;2023-04-22T12:49:19;100415.03;;;20.76;28.21
73063;BME280;61230;46.328;19.972;2023-04-22T12:51:46;100409.28;;;20.86;26.92
73063;BME280;61230;46.328;19.972;2023-04-22T12:54:14;100407.75;;;21.42;26.89
73063;BME280;61230;46.328;19.972;2023-04-22T12:56:43;100410.59;;;21.98;26.67
73063;BME280;61230;46.328;19.972;2023-04-22T12:59:12;100401.31;;;22.57;26.26